Detall de PIREP

Printer-friendly versionPDF version

[2009/11/12 21:55:00]
Flight IATA:CT2313
Pilot Number:026
Company ICAO:CAT
Aircraft Type:DC85/A
PAX:136
Departing Airport: LIBP
Destination Airport: LIEA
Alternate Airport:LIEO
Online: VATSIM
Route:ANEDA UL5 MINKA
Flight Level:FL290
No Slew and time accel
No pause
Crash detect
Detect pilot in Cockpit between each 30 and 45 minutes
21:55 Zero fuel Weight: 188327 Lbs, Fuel Weight: 30004 Lbs
21:55 VATSIM:LIBP 122050Z VRB03KT CAVOK 07/06 Q1018 RMK VIS MIN 9999
21:55 VATSIM:LIEA 122120Z 00000KT 5000 MIFG FEW014 12/11 Q1019
21:56 VOICE CATALONIAN
22:02 Parking Brakes off
22:10 Take-off
22:10 Take off Weight: 217239 Lbs
22:10 Wind: 076º @ 001 Knots Heading: 037º
22:10 POS N42º 26´ 14´´ E014º 11´ 21´´
22:10 Flaps:2 at 174 Knots
22:10 Gear Up: 175 Knots
22:11 Flaps:1 at 198 Knots
22:12 Flaps:0 at 229 Knots
22:23 TOC
22:23 Fuel Weight: 24477 Lb
22:25 Wind:074º@001 Knot
s Heading: 248º Ground Speed: 479 Knots Altitude 29110 ft
22:40 Wind:241º@011 Knots Heading: 249º Ground Speed: 456 Knots Altitude 29133 ft
22:41 TOD
22:41 Fuel Weight: 20202 Lb
22:55 Wind:252º@004 Knots Heading: 311º Ground Speed: 246 Knots Altitude 5045 ft
22:55 Gear Down: 235 Knots
22:55 Gear Up: 234 Knots
22:56 Flaps:1 at 190 Knots
22:57 Gear Down: 176 Knots
22:58 Flaps:2 at 149 Knots
22:58 Flaps:3 at 154 Knots
22:59 Flaps:4 at 180 Knots
22:59 Flaps:5 at 177 Knots
23:00 TouchDown:Rate -489 ft/min Speed: 143 Knots
23:00 VATSIM:LIEA 122220Z VRB02KT 8000 SCT012 12/11 Q1019
23:00 Land
23:00 Wind:265º@002 Knots
23:00 Heading: 190º
23:00 Flight Duration: 00:50
23:00 Landing Weight: 206301 Lbs
23:00 POS N40º 37´ 36´´ E008º 17´ 16´´
23:03 Parking brakes on
23:03 Block to Block Duration: 01:01
23:03 Final Fuel: 17590 Lbls
23:03 Spent Fuel: 12414 Lbls
23:0
3 Flight Length: 315 NM
23:03 TOD Land Length: 100 NM

Exportar CSV

Powered by Drupal - Modified by Danger4k